Time;durP1;ratioP1;P1;durP2;ratioP2;P2;SDS_P1;SDS_P2;PMS_P1;PMS_P2;Temp;Humidity;BMP_temperature;BMP_pressure;BME280_temperature;BME280_humidity;BME280_pressure;Samples;Min_cycle;Max_cycle;Signal;HPM_P1;HPM_P2
2023/04/25 00:01:22;;;;;;;8.38;2.97;;;8.30;89.70;;;;;;5050767;28;20025;-68
2023/04/25 00:03:48;;;;;;;9.60;2.97;;;8.20;89.70;;;;;;5049485;28;20365;-68
2023/04/25 00:06:14;;;;;;;8.75;2.75;;;8.20;89.90;;;;;;5049403;28;20017;-68
2023/04/25 00:08:40;;;;;;;6.10;2.72;;;8.20;89.90;;;;;;5043531;28;20488;-68
2023/04/25 00:11:05;;;;;;;10.02;3.10;;;8.20;89.90;;;;;;5047667;28;20219;-68
2023/04/25 00:13:31;;;;;;;6.35;2.63;;;8.10;89.80;;;;;;5032378;28;20060;-66
2023/04/25 00:15:57;;;;;;;9.65;3.08;;;8.10;89.80;;;;;;5050686;28;20032;-68
2023/04/25 00:18:23;;;;;;;10.73;3.28;;;8.10;89.70;;;;;;5050182;28;20023;-68
2023/04/25 00:20:49;;;;;;;8.80;3.67;;;8.00;89.70;;;;;;5050551;28;20025;-68
2023/04/25 00:23:17;;;;;;;8.00;3.00;;;8.00;89.80;;;;;;5050303;28;20100;-67
2023/04/25 00:25:47;;;;;;;11.38;2.90;;;8.00;89.80;;;;;;5045994;28;20036;-68
2023/04/25 00:28:13;;;;;;;7.43;2.85;;;7.90;89.70;;;;;;5050204;28;20024;-68
2023/04/25 00:30:40;;;;;;;9.43;3.05;;;7.90;89.70;;;;;;5050389;28;20033;-68
2023/04/25 00:33:06;;;;;;;7.32;2.85;;;7.90;89.60;;;;;;5050214;28;20024;-67
2023/04/25 00:35:31;;;;;;;7.70;3.00;;;7.90;89.60;;;;;;5050308;28;20474;-67
2023/04/25 00:37:57;;;;;;;7.97;2.83;;;7.90;89.40;;;;;;5049993;28;20033;-68
2023/04/25 00:40:23;;;;;;;8.27;3.00;;;7.90;89.40;;;;;;5050145;28;20020;-67
2023/04/25 00:42:51;;;;;;;6.93;2.50;;;7.90;89.30;;;;;;5048271;28;20025;-68
2023/04/25 00:45:17;;;;;;;7.50;2.78;;;7.90;89.20;;;;;;5048775;28;20555;-68
2023/04/25 00:47:43;;;;;;;8.95;2.75;;;7.90;89.10;;;;;;5050159;28;20298;-68
2023/04/25 00:50:09;;;;;;;7.70;2.67;;;7.90;89.20;;;;;;5050196;28;20020;-69
2023/04/25 00:52:35;;;;;;;6.82;2.75;;;7.90;89.00;;;;;;5050202;28;20028;-68
2023/04/25 00:55:01;;;;;;;10.55;2.75;;;7.90;89.00;;;;;;5048151;28;20082;-66
2023/04/25 00:57:28;;;;;;;7.88;2.70;;;8.00;89.10;;;;;;5042536;28;20013;-68
2023/04/25 00:59:54;;;;;;;5.43;2.58;;;8.00;89.00;;;;;;5050352;28;20021;-67
2023/04/25 01:02:20;;;;;;;8.57;2.72;;;8.00;88.90;;;;;;5049973;28;20030;-67
2023/04/25 01:04:47;;;;;;;10.32;3.05;;;8.00;88.80;;;;;;5050024;28;20395;-68
2023/04/25 01:07:12;;;;;;;11.40;3.25;;;8.00;88.60;;;;;;5049866;28;20474;-69
2023/04/25 01:09:38;;;;;;;9.13;3.33;;;8.00;88.60;;;;;;5050023;28;20025;-69
2023/04/25 01:12:04;;;;;;;8.38;2.90;;;7.90;88.80;;;;;;5048695;28;20039;-67
2023/04/25 01:14:30;;;;;;;8.82;2.70;;;7.90;88.80;;;;;;5049808;28;20032;-67
2023/04/25 01:16:56;;;;;;;8.77;3.17;;;7.80;88.80;;;;;;5048351;28;20027;-69
2023/04/25 01:19:21;;;;;;;7.20;3.20;;;7.80;88.90;;;;;;5049793;28;20056;-69
2023/04/25 01:21:47;;;;;;;7.75;2.88;;;7.80;88.90;;;;;;5049423;28;20028;-69
2023/04/25 01:24:13;;;;;;;7.63;2.63;;;7.90;88.90;;;;;;5049817;28;20468;-69
2023/04/25 01:26:44;;;;;;;9.43;3.20;;;7.90;88.80;;;;;;5048313;28;20518;-68
2023/04/25 01:29:10;;;;;;;10.73;3.50;;;7.90;88.80;;;;;;5048614;28;20427;-68
2023/04/25 01:31:37;;;;;;;8.02;3.40;;;7.80;88.80;;;;;;5049761;28;20434;-69
2023/04/25 01:34:03;;;;;;;9.85;3.53;;;7.80;88.90;;;;;;5049583;28;20032;-67
2023/04/25 01:36:28;;;;;;;8.35;2.90;;;7.80;88.90;;;;;;5050054;28;20127;-68
2023/04/25 01:38:55;;;;;;;9.98;3.20;;;7.70;88.80;;;;;;5049921;28;20036;-69
2023/04/25 01:41:22;;;;;;;8.70;3.35;;;7.80;89.00;;;;;;5049816;28;20051;-69
2023/04/25 01:43:48;;;;;;;11.80;3.05;;;7.80;89.00;;;;;;5049944;28;20055;-67
2023/04/25 01:46:14;;;;;;;9.18;3.17;;;7.80;89.00;;;;;;5049637;28;20072;-68
2023/04/25 01:48:40;;;;;;;10.35;3.53;;;7.80;88.90;;;;;;5049537;28;20028;-67
2023/04/25 01:51:05;;;;;;;8.98;3.17;;;7.80;88.90;;;;;;5049446;28;20052;-68
2023/04/25 01:53:31;;;;;;;9.32;3.30;;;7.80;88.70;;;;;;5049328;28;20074;-66
2023/04/25 01:55:57;;;;;;;7.15;2.97;;;7.90;88.70;;;;;;5049476;28;20029;-67
2023/04/25 01:58:22;;;;;;;7.68;3.35;;;7.80;88.50;;;;;;5049584;28;20215;-67
2023/04/25 02:00:48;;;;;;;10.45;3.22;;;7.80;88.40;;;;;;5049517;28;20025;-68
2023/04/25 02:03:13;;;;;;;6.45;2.90;;;7.80;89.00;;;;;;5048096;28;20096;-67
2023/04/25 02:05:40;;;;;;;8.35;3.35;;;7.80;88.50;;;;;;5049847;28;20090;-67
2023/04/25 02:08:07;;;;;;;10.30;3.05;;;7.80;88.50;;;;;;5052755;28;20029;-67
2023/04/25 02:10:33;;;;;;;8.98;3.30;;;7.80;88.40;;;;;;5051743;28;20071;-67
2023/04/25 02:12:58;;;;;;;12.88;3.70;;;7.70;88.40;;;;;;5052822;28;20387;-67
2023/04/25 02:15:24;;;;;;;9.13;3.30;;;7.80;88.40;;;;;;5052944;28;20091;-67
2023/04/25 02:17:52;;;;;;;8.27;3.15;;;7.70;88.40;;;;;;5052239;28;20025;-66
2023/04/25 02:20:19;;;;;;;7.63;3.65;;;7.70;88.50;;;;;;5051596;28;20402;-66
2023/04/25 02:22:45;;;;;;;14.52;3.58;;;7.70;88.50;;;;;;5052008;28;20051;-66
2023/04/25 02:25:11;;;;;;;9.50;3.15;;;7.70;88.50;;;;;;5052788;28;20499;-67
2023/04/25 02:27:37;;;;;;;8.85;3.15;;;7.70;88.50;;;;;;5051462;28;20087;-66
2023/04/25 02:30:04;;;;;;;10.43;3.17;;;7.70;88.40;;;;;;5052970;28;20028;-67
2023/04/25 02:32:30;;;;;;;11.68;3.30;;;7.70;88.40;;;;;;5052609;28;20489;-67
2023/04/25 02:34:58;;;;;;;9.57;3.30;;;7.70;88.30;;;;;;5052348;28;20026;-68
2023/04/25 02:37:24;;;;;;;7.95;2.80;;;7.80;88.20;;;;;;5052309;28;20032;-66
2023/04/25 02:39:49;;;;;;;9.63;3.30;;;7.70;88.20;;;;;;5052262;28;20021;-68
2023/04/25 02:42:15;;;;;;;9.07;3.15;;;7.70;88.10;;;;;;5052487;28;20021;-68
2023/04/25 02:44:41;;;;;;;8.05;2.67;;;7.70;88.10;;;;;;5052308;28;20025;-67
2023/04/25 02:47:06;;;;;;;11.70;3.38;;;7.60;88.00;;;;;;5052238;28;20021;-67
2023/04/25 02:49:32;;;;;;;9.05;3.10;;;7.60;88.00;;;;;;5052175;28;20386;-68
2023/04/25 02:51:57;;;;;;;14.23;3.65;;;7.60;88.00;;;;;;5052271;28;20490;-68
2023/04/25 02:54:23;;;;;;;8.93;3.60;;;7.50;87.90;;;;;;5052292;28;20416;-66
2023/04/25 02:56:48;;;;;;;8.90;2.85;;;7.50;87.90;;;;;;5050739;28;20025;-67
2023/04/25 02:59:14;;;;;;;9.25;3.10;;;7.50;88.00;;;;;;5051978;28;20035;-67
2023/04/25 03:01:39;;;;;;;11.90;3.30;;;7.40;87.90;;;;;;5051873;28;20025;-67
2023/04/25 03:04:05;;;;;;;9.60;3.60;;;7.40;87.80;;;;;;5051907;28;20029;-66
2023/04/25 03:06:30;;;;;;;7.25;2.75;;;7.40;87.90;;;;;;5051680;28;20071;-67
2023/04/25 03:08:56;;;;;;;8.10;3.05;;;7.30;87.80;;;;;;5051898;28;20104;-67
2023/04/25 03:11:21;;;;;;;8.98;2.85;;;7.30;87.90;;;;;;5051661;28;20025;-67
2023/04/25 03:13:47;;;;;;;9.13;2.85;;;7.30;87.90;;;;;;5051871;28;20106;-67
2023/04/25 03:16:12;;;;;;;8.95;3.30;;;7.30;88.00;;;;;;5051432;28;20025;-67
2023/04/25 03:18:38;;;;;;;8.48;3.70;;;7.20;87.90;;;;;;5051352;28;20051;-67
2023/04/25 03:21:04;;;;;;;9.32;2.95;;;7.20;87.80;;;;;;5051485;28;20029;-66
2023/04/25 03:23:30;;;;;;;8.70;3.00;;;7.20;87.70;;;;;;5050443;28;20017;-68
2023/04/25 03:25:55;;;;;;;7.57;2.67;;;7.10;87.70;;;;;;5051545;28;20427;-67
2023/04/25 03:28:22;;;;;;;8.25;2.60;;;7.20;87.80;;;;;;5051996;28;20032;-67
2023/04/25 03:30:47;;;;;;;6.93;2.55;;;7.10;87.80;;;;;;5051925;28;20070;-67
2023/04/25 03:33:13;;;;;;;11.68;3.75;;;7.10;88.40;;;;;;5051408;28;20036;-66
2023/04/25 03:35:38;;;;;;;8.20;3.08;;;7.10;87.70;;;;;;5051371;28;20098;-67
2023/04/25 03:38:04;;;;;;;10.77;3.15;;;7.10;87.70;;;;;;5051068;28;20118;-68
2023/04/25 03:40:29;;;;;;;6.13;2.80;;;7.10;87.70;;;;;;5051340;28;20021;-67
2023/04/25 03:42:55;;;;;;;8.13;2.63;;;7.00;87.60;;;;;;5051084;28;20025;-67
2023/04/25 03:45:20;;;;;;;9.73;3.00;;;7.00;87.60;;;;;;5051266;28;20495;-66
2023/04/25 03:47:46;;;;;;;9.15;3.20;;;7.00;87.50;;;;;;5050855;28;20577;-68
2023/04/25 03:50:11;;;;;;;10.07;3.10;;;7.00;87.40;;;;;;5051245;28;20502;-67
2023/04/25 03:52:37;;;;;;;5.93;2.40;;;7.10;87.40;;;;;;5051066;28;20699;-66
2023/04/25 03:55:04;;;;;;;8.63;2.80;;;7.10;87.30;;;;;;5050980;28;20024;-67
2023/04/25 03:57:30;;;;;;;11.48;3.28;;;7.10;87.30;;;;;;5050788;28;20029;-67
2023/04/25 03:59:55;;;;;;;6.55;2.95;;;7.00;87.20;;;;;;5050764;28;20426;-65
2023/04/25 04:02:22;;;;;;;6.40;2.60;;;7.00;87.30;;;;;;5050996;28;20392;-67
2023/04/25 04:04:47;;;;;;;6.80;2.75;;;7.00;87.40;;;;;;5050956;28;20052;-67
2023/04/25 04:07:13;;;;;;;11.00;3.35;;;6.90;87.30;;;;;;5050751;28;20048;-67
2023/04/25 04:09:39;;;;;;;10.55;3.25;;;6.90;87.40;;;;;;5050615;28;20025;-68
2023/04/25 04:12:04;;;;;;;8.85;3.00;;;6.90;87.40;;;;;;5050572;28;20440;-66
2023/04/25 04:14:30;;;;;;;12.10;3.10;;;6.80;87.40;;;;;;5049427;28;20025;-66
2023/04/25 04:16:55;;;;;;;8.57;3.28;;;6.80;87.40;;;;;;5050432;28;20496;-66
2023/04/25 04:19:21;;;;;;;7.20;2.63;;;6.80;87.40;;;;;;5050352;28;20029;-67
2023/04/25 04:21:47;;;;;;;6.80;2.58;;;6.80;87.40;;;;;;5050593;28;20079;-66
2023/04/25 04:24:12;;;;;;;8.80;3.10;;;6.70;87.40;;;;;;5050300;28;20090;-66
2023/04/25 04:26:38;;;;;;;13.38;3.22;;;6.60;87.40;;;;;;5050397;28;20029;-67
2023/04/25 04:29:04;;;;;;;10.15;2.95;;;6.60;87.40;;;;;;5049503;28;20043;-66
2023/04/25 04:31:30;;;;;;;11.00;3.20;;;6.60;87.50;;;;;;5050372;28;20029;-67
2023/04/25 04:33:55;;;;;;;8.77;3.00;;;6.60;87.70;;;;;;5050278;28;20028;-67
2023/04/25 04:36:22;;;;;;;9.27;3.28;;;6.60;87.70;;;;;;5050192;28;20021;-67
2023/04/25 04:38:48;;;;;;;8.93;3.05;;;6.60;87.70;;;;;;5050467;28;20028;-66
2023/04/25 04:41:14;;;;;;;9.10;3.30;;;6.60;87.70;;;;;;5050117;28;20021;-67
2023/04/25 04:43:39;;;;;;;9.85;3.30;;;6.50;87.50;;;;;;5050319;28;20025;-68
2023/04/25 04:46:05;;;;;;;10.15;3.22;;;6.60;87.50;;;;;;5050036;28;20024;-67
2023/04/25 04:48:34;;;;;;;12.38;3.30;;;6.60;87.50;;;;;;5050323;28;20037;-67
2023/04/25 04:51:00;;;;;;;7.85;3.17;;;6.60;87.60;;;;;;5050013;28;20179;-68
2023/04/25 04:53:26;;;;;;;9.80;3.35;;;6.70;87.50;;;;;;5050171;28;20021;-66
2023/04/25 04:55:51;;;;;;;8.73;3.10;;;6.70;87.40;;;;;;5050049;28;20060;-67
2023/04/25 04:58:17;;;;;;;9.27;3.10;;;6.70;87.40;;;;;;5048591;28;20531;-67
2023/04/25 05:00:43;;;;;;;9.35;3.58;;;6.70;87.40;;;;;;5049796;28;20384;-67
2023/04/25 05:03:08;;;;;;;10.93;3.72;;;6.70;87.50;;;;;;5049924;28;20403;-68
2023/04/25 05:05:34;;;;;;;8.52;3.58;;;6.70;87.50;;;;;;5050054;28;20028;-68
2023/04/25 05:07:59;;;;;;;9.60;3.28;;;6.60;87.40;;;;;;5049713;28;20025;-67
2023/04/25 05:10:26;;;;;;;9.98;3.28;;;6.60;87.50;;;;;;5050015;28;20025;-66
2023/04/25 05:12:51;;;;;;;8.95;3.60;;;6.60;87.50;;;;;;5049856;28;20048;-67
2023/04/25 05:15:17;;;;;;;8.30;3.45;;;6.60;87.30;;;;;;5048780;28;20013;-67
2023/04/25 05:17:42;;;;;;;9.30;3.65;;;6.60;87.40;;;;;;5049687;28;20475;-68
2023/04/25 05:20:09;;;;;;;10.40;4.07;;;6.70;87.40;;;;;;5050005;28;20150;-67
2023/04/25 05:22:35;;;;;;;9.57;3.50;;;6.70;87.30;;;;;;5049786;28;20064;-68
2023/04/25 05:25:00;;;;;;;10.02;3.58;;;6.70;87.20;;;;;;5049796;28;20021;-68
2023/04/25 05:27:26;;;;;;;7.40;3.17;;;6.80;87.30;;;;;;5049767;28;20036;-67
2023/04/25 05:29:52;;;;;;;9.60;3.50;;;6.80;87.20;;;;;;5050027;28;20025;-68
2023/04/25 05:32:18;;;;;;;8.85;3.40;;;6.90;87.10;;;;;;5049637;28;20028;-67
2023/04/25 05:34:43;;;;;;;10.13;3.22;;;7.00;87.00;;;;;;5048425;28;20032;-67
2023/04/25 05:37:09;;;;;;;9.73;3.10;;;7.00;86.90;;;;;;5049650;28;20119;-68
2023/04/25 05:39:35;;;;;;;12.07;3.33;;;7.00;86.80;;;;;;5050014;28;20395;-68
2023/04/25 05:42:01;;;;;;;8.52;3.15;;;7.10;86.70;;;;;;5053553;28;20523;-67
2023/04/25 05:44:26;;;;;;;7.40;3.00;;;7.10;86.70;;;;;;5051980;28;20020;-67
2023/04/25 05:46:52;;;;;;;11.40;3.55;;;7.10;86.50;;;;;;5053285;28;20021;-67
2023/04/25 05:49:17;;;;;;;6.00;3.00;;;7.20;86.50;;;;;;5053236;28;20021;-68
2023/04/25 05:51:43;;;;;;;9.93;3.17;;;7.20;86.30;;;;;;5053634;28;20017;-68
2023/04/25 05:54:09;;;;;;;9.82;3.20;;;7.30;86.20;;;;;;5053190;28;20024;-67
2023/04/25 05:56:35;;;;;;;5.63;2.83;;;7.40;86.20;;;;;;5053248;28;20383;-68
2023/04/25 05:59:00;;;;;;;11.55;3.13;;;7.50;86.20;;;;;;5052998;28;20033;-67
2023/04/25 06:01:26;;;;;;;7.60;3.05;;;8.20;85.40;;;;;;5053265;28;20319;-68
2023/04/25 06:03:52;;;;;;;10.88;3.67;;;8.30;83.90;;;;;;5053306;28;20092;-67
2023/04/25 06:06:18;;;;;;;10.10;3.58;;;8.10;83.50;;;;;;5053630;28;20017;-67
2023/04/25 06:08:43;;;;;;;8.25;3.17;;;7.90;83.80;;;;;;5053216;28;20032;-68
2023/04/25 06:11:09;;;;;;;6.72;3.00;;;7.90;84.30;;;;;;5051999;28;20021;-66
2023/04/25 06:13:34;;;;;;;8.00;2.90;;;7.80;84.40;;;;;;5053112;28;20382;-68
2023/04/25 06:16:00;;;;;;;7.50;2.85;;;7.90;84.70;;;;;;5052766;28;20028;-67
2023/04/25 06:18:26;;;;;;;9.02;2.70;;;7.90;84.60;;;;;;5052833;28;20063;-67
2023/04/25 06:20:51;;;;;;;7.97;2.65;;;8.10;84.40;;;;;;5052791;28;20433;-67
2023/04/25 06:23:17;;;;;;;9.38;3.30;;;8.20;84.20;;;;;;5052960;28;20283;-67
2023/04/25 06:25:42;;;;;;;8.70;3.28;;;8.40;84.40;;;;;;5052576;28;20033;-68
2023/04/25 06:28:08;;;;;;;7.25;3.10;;;8.60;83.00;;;;;;5052965;28;20036;-67
2023/04/25 06:30:33;;;;;;;6.45;2.90;;;8.70;82.60;;;;;;5052422;28;20056;-68
2023/04/25 06:32:59;;;;;;;8.10;3.00;;;8.70;82.50;;;;;;5052849;28;20032;-68
2023/04/25 06:35:24;;;;;;;5.50;2.40;;;8.70;82.50;;;;;;5052444;28;20480;-68
2023/04/25 06:37:50;;;;;;;9.80;2.63;;;8.70;82.70;;;;;;5051223;28;20017;-68
2023/04/25 06:40:17;;;;;;;6.47;2.63;;;8.70;82.70;;;;;;5052217;28;20050;-67
2023/04/25 06:42:42;;;;;;;5.80;2.50;;;8.70;82.70;;;;;;5052409;28;20045;-67
2023/04/25 06:45:08;;;;;;;11.38;2.65;;;8.80;82.70;;;;;;5052301;28;20064;-67
2023/04/25 06:47:34;;;;;;;7.35;2.72;;;9.00;82.40;;;;;;5051980;28;20033;-67
2023/04/25 06:49:59;;;;;;;8.23;3.15;;;9.00;82.20;;;;;;5052246;28;20024;-68
2023/04/25 06:52:25;;;;;;;7.95;2.95;;;9.00;81.90;;;;;;5051243;28;20029;-66
2023/04/25 06:54:50;;;;;;;7.20;2.67;;;9.00;81.80;;;;;;5050602;28;20025;-68
2023/04/25 06:57:16;;;;;;;7.97;2.88;;;9.00;81.60;;;;;;5050203;28;20029;-68
2023/04/25 06:59:42;;;;;;;7.30;2.80;;;9.00;81.40;;;;;;5051676;28;20036;-68
2023/04/25 07:02:07;;;;;;;9.27;2.88;;;9.00;81.60;;;;;;5051503;28;20352;-67
2023/04/25 07:04:33;;;;;;;7.53;2.72;;;8.90;81.50;;;;;;5051887;28;20517;-68
2023/04/25 07:07:00;;;;;;;7.40;2.85;;;8.80;81.80;;;;;;5051651;28;20021;-68
2023/04/25 07:09:26;;;;;;;9.57;3.03;;;8.80;82.10;;;;;;5051843;28;20025;-66
2023/04/25 07:11:51;;;;;;;8.63;3.08;;;9.20;82.20;;;;;;5051550;28;20437;-68
2023/04/25 07:14:17;;;;;;;7.53;3.15;;;10.00;81.00;;;;;;5051655;28;20427;-68
2023/04/25 07:16:43;;;;;;;6.35;3.20;;;11.80;76.50;;;;;;5051641;28;20032;-68
2023/04/25 07:19:08;;;;;;;7.20;2.60;;;13.70;71.10;;;;;;5051393;28;20025;-68
2023/04/25 07:21:34;;;;;;;7.60;2.90;;;14.70;67.00;;;;;;5051535;28;20380;-68
2023/04/25 07:23:59;;;;;;;8.10;2.97;;;15.70;64.30;;;;;;5051402;28;20027;-68
2023/04/25 07:26:25;;;;;;;5.93;2.70;;;16.50;61.90;;;;;;5051210;28;20510;-68
2023/04/25 07:28:51;;;;;;;5.07;2.53;;;17.20;59.70;;;;;;5051334;28;20674;-68
2023/04/25 07:31:19;;;;;;;7.88;2.80;;;17.30;58.40;;;;;;5051355;28;20033;-68
2023/04/25 07:33:45;;;;;;;7.53;3.00;;;17.70;57.50;;;;;;5051123;28;20021;-68
2023/04/25 07:36:12;;;;;;;6.30;2.60;;;17.40;56.60;;;;;;5051220;28;20021;-68
2023/04/25 07:38:38;;;;;;;5.15;2.30;;;15.70;58.00;;;;;;5050981;28;20049;-67
2023/04/25 07:41:04;;;;;;;6.82;2.30;;;14.30;61.40;;;;;;5049800;28;20067;-68
2023/04/25 07:43:29;;;;;;;8.80;2.40;;;13.30;64.30;;;;;;5050910;28;20480;-69
2023/04/25 07:45:56;;;;;;;7.47;2.70;;;12.70;66.50;;;;;;5051330;28;20224;-67
2023/04/25 07:48:22;;;;;;;5.32;2.05;;;12.20;67.90;;;;;;5051060;28;20021;-67
2023/04/25 07:50:47;;;;;;;5.63;2.13;;;11.80;68.80;;;;;;5049598;28;20079;-68
2023/04/25 07:53:13;;;;;;;5.32;2.10;;;11.50;69.90;;;;;;5051158;28;20487;-68
2023/04/25 07:55:39;;;;;;;5.22;1.80;;;11.30;70.40;;;;;;5051426;28;20115;-69
2023/04/25 07:58:06;;;;;;;4.25;1.65;;;11.10;70.70;;;;;;5049757;28;20465;-68
2023/04/25 08:00:32;;;;;;;5.10;1.85;;;11.00;70.60;;;;;;5050558;28;20056;-67
2023/04/25 08:02:57;;;;;;;6.45;2.00;;;11.10;70.80;;;;;;5049260;28;20060;-68
2023/04/25 08:05:23;;;;;;;6.22;2.17;;;11.40;70.00;;;;;;5050542;28;20032;-68
2023/04/25 08:07:48;;;;;;;5.43;1.85;;;11.30;68.80;;;;;;5050742;28;20028;-67
2023/04/25 08:10:14;;;;;;;5.75;1.90;;;11.20;68.90;;;;;;5050545;28;20506;-69
2023/04/25 08:12:40;;;;;;;7.88;1.88;;;12.40;68.30;;;;;;5050516;28;20029;-68
2023/04/25 08:15:06;;;;;;;4.88;1.63;;;13.20;65.40;;;;;;5050492;28;20499;-68
2023/04/25 08:17:31;;;;;;;4.78;1.80;;;13.60;63.90;;;;;;5050683;28;20033;-68
2023/04/25 08:19:57;;;;;;;4.50;1.50;;;13.50;63.00;;;;;;5049291;28;20144;-67
2023/04/25 08:22:23;;;;;;;5.28;1.85;;;13.40;63.00;;;;;;5050399;28;20111;-68
2023/04/25 08:24:48;;;;;;;5.55;1.80;;;13.40;63.20;;;;;;5050324;28;20029;-68
2023/04/25 08:27:14;;;;;;;4.07;1.50;;;13.10;62.60;;;;;;5050628;28;20025;-68
2023/04/25 08:29:39;;;;;;;4.20;1.65;;;12.90;62.00;;;;;;5049155;28;20476;-68
2023/04/25 08:32:05;;;;;;;4.60;1.63;;;12.70;61.70;;;;;;5050595;28;20041;-68
2023/04/25 08:34:30;;;;;;;5.55;1.70;;;12.60;61.20;;;;;;5051003;28;20040;-68
2023/04/25 08:36:56;;;;;;;5.32;1.80;;;12.30;60.90;;;;;;5050789;28;20079;-68
2023/04/25 08:39:22;;;;;;;5.25;2.00;;;11.90;60.90;;;;;;5050288;28;20021;-67
2023/04/25 08:41:47;;;;;;;4.85;1.90;;;11.70;61.60;;;;;;5048880;28;20372;-69
2023/04/25 08:44:14;;;;;;;5.90;1.52;;;11.50;62.00;;;;;;5050199;28;20112;-68
2023/04/25 08:46:41;;;;;;;5.53;1.80;;;11.20;61.50;;;;;;5049957;28;20040;-67
2023/04/25 08:49:10;;;;;;;7.53;1.90;;;11.00;62.00;;;;;;5050279;28;20051;-68
2023/04/25 08:51:46;;;;;;;5.63;2.03;;;10.80;61.90;;;;;;5050177;28;20070;-67
2023/04/25 08:54:13;;;;;;;5.15;1.63;;;10.70;62.30;;;;;;5050092;28;20021;-68
2023/04/25 08:56:41;;;;;;;4.80;1.50;;;10.70;62.80;;;;;;5048664;28;20095;-67
2023/04/25 08:59:07;;;;;;;4.22;1.45;;;10.70;62.90;;;;;;5048400;28;20111;-67
2023/04/25 09:01:35;;;;;;;4.97;1.77;;;10.60;63.40;;;;;;5049845;28;20024;-67
2023/04/25 09:04:00;;;;;;;5.90;1.63;;;10.50;64.30;;;;;;5050162;28;20017;-67
2023/04/25 09:06:28;;;;;;;2.95;1.15;;;10.50;64.70;;;;;;5049455;28;20690;-68
2023/04/25 09:08:54;;;;;;;4.43;1.40;;;10.50;65.00;;;;;;5049790;28;20025;-68
2023/04/25 09:11:20;;;;;;;2.80;1.50;;;10.50;65.40;;;;;;5050048;28;20031;-69
2023/04/25 09:13:45;;;;;;;6.05;1.52;;;10.60;65.60;;;;;;5049623;28;20021;-68
2023/04/25 09:16:11;;;;;;;3.45;1.55;;;10.60;65.80;;;;;;5052997;28;20028;-67
2023/04/25 09:18:37;;;;;;;5.82;1.50;;;10.70;65.90;;;;;;5052262;28;20033;-67
2023/04/25 09:21:08;;;;;;;4.55;1.30;;;10.70;65.80;;;;;;5053757;28;20052;-67
2023/04/25 09:23:46;;;;;;;6.38;1.63;;;10.70;65.10;;;;;;5053768;28;20482;-68
2023/04/25 09:26:15;;;;;;;6.57;1.67;;;10.70;63.90;;;;;;5053609;28;20037;-68
2023/04/25 09:28:42;;;;;;;5.45;1.60;;;10.70;63.20;;;;;;5053406;28;20020;-68
2023/04/25 09:31:10;;;;;;;5.32;1.88;;;10.80;63.20;;;;;;5052198;28;20025;-68
2023/04/25 09:33:36;;;;;;;5.15;1.33;;;10.70;62.20;;;;;;5053394;28;20102;-67
2023/04/25 09:36:10;;;;;;;4.95;1.48;;;10.70;62.90;;;;;;5053377;28;20756;-67
2023/04/25 09:38:46;;;;;;;3.85;1.40;;;10.80;62.90;;;;;;5051990;28;20103;-66
2023/04/25 09:41:12;;;;;;;4.38;1.23;;;11.00;62.80;;;;;;5053201;28;20028;-68
2023/04/25 09:43:38;;;;;;;3.60;1.40;;;11.10;62.40;;;;;;5053368;28;20025;-68
2023/04/25 09:46:11;;;;;;;3.72;1.45;;;11.30;62.10;;;;;;5053198;28;20049;-67
2023/04/25 09:48:37;;;;;;;5.13;1.40;;;11.40;61.10;;;;;;5053163;28;20029;-67
2023/04/25 09:51:10;;;;;;;3.78;1.27;;;11.60;61.30;;;;;;5053069;28;20048;-68
2023/04/25 09:53:37;;;;;;;5.78;1.40;;;11.80;61.00;;;;;;5053488;28;20017;-68
2023/04/25 09:56:08;;;;;;;2.92;1.20;;;11.90;60.10;;;;;;5053152;28;20082;-67
2023/04/25 09:58:35;;;;;;;4.85;1.40;;;12.00;60.00;;;;;;5052931;28;20102;-68
2023/04/25 10:01:03;;;;;;;3.50;1.80;;;12.10;59.00;;;;;;5053101;28;20075;-68
2023/04/25 10:03:34;;;;;;;2.38;1.50;;;12.10;57.80;;;;;;5053100;28;20021;-68
2023/04/25 10:06:02;;;;;;;5.30;1.90;;;12.30;56.90;;;;;;5053273;28;20100;-67
2023/04/25 10:08:36;;;;;;;3.45;1.52;;;12.30;56.00;;;;;;5052883;28;20029;-68
2023/04/25 10:11:03;;;;;;;4.70;1.50;;;12.30;55.00;;;;;;5052660;28;20032;-68
2023/04/25 10:13:32;;;;;;;6.20;1.60;;;12.10;54.30;;;;;;5052892;28;20100;-67
2023/04/25 10:16:00;;;;;;;2.97;1.30;;;12.00;54.60;;;;;;5051493;28;20092;-67
2023/04/25 10:18:27;;;;;;;3.38;1.40;;;11.90;54.60;;;;;;5052532;28;20444;-68
2023/04/25 10:20:56;;;;;;;5.30;1.48;;;11.90;55.30;;;;;;5052738;28;20017;-66
2023/04/25 10:23:22;;;;;;;4.43;1.40;;;11.90;55.10;;;;;;5051209;28;20035;-68
2023/04/25 10:25:50;;;;;;;3.67;1.45;;;11.80;55.00;;;;;;5042143;28;20111;-66
2023/04/25 10:28:15;;;;;;;3.00;1.30;;;11.90;55.80;;;;;;5051547;28;20108;-67
2023/04/25 10:31:02;;;;;;;6.80;1.30;;;12.10;56.00;;;;;;5052341;28;20100;-66
2023/04/25 10:33:39;;;;;;;3.95;1.40;;;12.10;55.10;;;;;;5052330;28;20109;-68
2023/04/25 10:36:12;;;;;;;4.78;1.48;;;11.90;54.30;;;;;;5052512;28;20017;-67
2023/04/25 10:38:39;;;;;;;5.55;1.80;;;11.70;54.30;;;;;;5050937;28;20052;-68
2023/04/25 10:41:10;;;;;;;3.50;1.50;;;11.40;55.70;;;;;;5052435;28;20028;-67
2023/04/25 10:43:44;;;;;;;3.90;1.33;;;11.20;57.70;;;;;;5052304;28;20115;-67
2023/04/25 10:46:22;;;;;;;5.65;1.55;;;11.00;59.40;;;;;;5052402;28;20044;-67
2023/04/25 10:49:32;;;;;;;3.22;1.27;;;10.80;60.80;;;;;;5052093;28;20021;-67
2023/04/25 10:52:26;;;;;;;4.45;1.30;;;10.60;62.40;;;;;;5041497;28;20667;-66
2023/04/25 10:54:54;;;;;;;4.43;1.73;;;10.60;62.70;;;;;;5051741;28;20028;-66
2023/04/25 10:57:29;;;;;;;3.67;1.52;;;10.70;63.30;;;;;;5050740;28;20021;-65
2023/04/25 10:59:58;;;;;;;3.13;1.35;;;10.80;63.40;;;;;;5052283;28;20471;-67
2023/04/25 11:02:28;;;;;;;4.30;1.20;;;10.80;63.30;;;;;;5051877;28;20533;-67
2023/04/25 11:04:54;;;;;;;5.68;1.50;;;10.90;63.20;;;;;;5050506;28;20112;-67
2023/04/25 11:07:32;;;;;;;3.75;1.40;;;11.00;62.50;;;;;;5051690;28;20021;-67
2023/04/25 11:10:00;;;;;;;4.40;1.40;;;11.10;62.20;;;;;;5051666;28;20025;-67
2023/04/25 11:12:26;;;;;;;2.97;1.30;;;11.20;62.20;;;;;;5050774;28;20116;-67
2023/04/25 11:14:59;;;;;;;6.70;1.42;;;11.50;62.30;;;;;;5052189;28;20103;-67
2023/04/25 11:17:25;;;;;;;4.35;1.42;;;11.60;61.60;;;;;;5051817;28;20029;-67
2023/04/25 11:19:50;;;;;;;3.50;1.20;;;11.70;61.30;;;;;;5051262;28;20132;-66
2023/04/25 11:22:16;;;;;;;3.88;1.30;;;11.70;60.90;;;;;;5051499;28;20029;-68
2023/04/25 11:24:42;;;;;;;4.15;1.65;;;11.80;60.70;;;;;;5051197;28;20028;-67
2023/04/25 11:27:08;;;;;;;3.63;1.17;;;11.80;59.60;;;;;;5051400;28;20025;-67
2023/04/25 11:29:34;;;;;;;2.50;1.20;;;11.80;59.00;;;;;;5051144;28;20067;-67
2023/04/25 11:32:01;;;;;;;2.58;1.25;;;12.00;58.70;;;;;;5051369;28;20032;-66
2023/04/25 11:34:32;;;;;;;4.20;1.30;;;12.30;58.10;;;;;;5051118;28;20069;-66
2023/04/25 11:36:59;;;;;;;1.80;1.02;;;12.30;54.40;;;;;;5051111;28;20048;-67
2023/04/25 11:39:25;;;;;;;3.20;1.25;;;12.20;52.80;;;;;;5050790;28;20460;-67
2023/04/25 11:41:52;;;;;;;2.10;1.10;;;12.30;52.30;;;;;;5051053;28;20051;-67
2023/04/25 11:44:18;;;;;;;3.67;1.10;;;12.30;51.50;;;;;;5050999;28;20028;-67
2023/04/25 11:46:45;;;;;;;2.53;1.10;;;12.50;52.40;;;;;;5050746;28;20056;-68
2023/04/25 11:49:11;;;;;;;4.00;1.08;;;12.80;52.60;;;;;;5051214;28;20126;-67
2023/04/25 11:51:44;;;;;;;3.17;1.13;;;12.90;52.80;;;;;;5050567;28;20021;-66
2023/04/25 11:54:11;;;;;;;4.70;1.20;;;12.90;52.20;;;;;;5050378;28;20083;-66
2023/04/25 11:56:37;;;;;;;4.18;1.10;;;12.90;51.70;;;;;;5050530;28;20510;-67
2023/04/25 11:59:05;;;;;;;2.80;1.50;;;13.00;51.50;;;;;;5049036;28;20033;-67
2023/04/25 12:01:33;;;;;;;2.50;1.27;;;13.10;51.10;;;;;;5050552;28;20386;-67
2023/04/25 12:04:10;;;;;;;3.00;1.25;;;13.10;51.30;;;;;;5050439;28;20013;-67
2023/04/25 12:06:40;;;;;;;2.80;1.10;;;13.10;50.90;;;;;;5050477;28;20013;-66
2023/04/25 12:09:08;;;;;;;3.72;1.40;;;13.00;50.10;;;;;;5049166;28;20029;-66
2023/04/25 12:11:44;;;;;;;5.47;1.40;;;12.90;50.30;;;;;;5050374;28;20025;-66
2023/04/25 12:14:11;;;;;;;3.42;1.30;;;12.60;52.00;;;;;;5044830;28;20032;-66
2023/04/25 12:16:45;;;;;;;2.70;1.20;;;12.40;53.00;;;;;;5050575;28;20037;-66
2023/04/25 12:19:14;;;;;;;3.92;1.30;;;12.10;53.90;;;;;;5048965;28;20626;-66
2023/04/25 12:21:40;;;;;;;3.40;1.35;;;11.70;54.90;;;;;;5050371;28;20021;-67
2023/04/25 12:24:15;;;;;;;2.90;1.45;;;11.50;55.70;;;;;;5049808;28;20505;-67
2023/04/25 12:26:48;;;;;;;4.22;1.50;;;11.20;56.40;;;;;;5050174;28;20033;-65
2023/04/25 12:29:22;;;;;;;2.75;1.10;;;11.10;57.10;;;;;;5050221;28;20078;-67
2023/04/25 12:31:49;;;;;;;5.32;1.33;;;11.10;57.70;;;;;;5050698;28;20039;-67
2023/04/25 12:34:15;;;;;;;2.97;1.20;;;11.10;57.80;;;;;;5050423;28;20032;-66
2023/04/25 12:36:41;;;;;;;5.05;1.50;;;11.00;57.50;;;;;;5048837;28;20033;-67
2023/04/25 12:39:07;;;;;;;4.18;1.50;;;11.10;57.60;;;;;;5050124;28;20029;-67
2023/04/25 12:41:33;;;;;;;3.95;1.33;;;11.10;57.40;;;;;;5050276;28;20037;-65
2023/04/25 12:43:59;;;;;;;3.45;1.35;;;11.10;57.30;;;;;;5050101;28;20095;-67
2023/04/25 12:46:24;;;;;;;5.95;1.30;;;11.20;57.50;;;;;;5050068;28;20017;-66
2023/04/25 12:48:50;;;;;;;3.13;1.52;;;11.20;57.60;;;;;;5049622;28;20118;-67